CheckWX is a tool to help pilots better visualize weather data.  It is not intended as a substitute for an official pre-flight weather briefing.

14:43:06 UTC

KAST METAR
Astoria Regional Airport
Astoria, Oregon, USA
Current

13 mins ago

KAST 201430Z AUTO 18005KT 10SM BKN019 12/09 A2981 RMK AO2 T01220089
Observed
May-20 @ 14:30 UTC
Wind
  • 180° at 5 KTS
Visibility
10 SM
Flight Rules
MVFR
Cloud Levels
  • Broken at 1,900' AGL
Temperature
12°C / 54°F
Dewpoint
C / 48°F
Humidity
82%
Altimeter
29.81" Hg
Pressure
1009.52 hPa
Previous

48 mins ago

KAST 201355Z AUTO 22005KT 10SM FEW017 FEW022 OVC120 12/09 A2981 RMK AO2 SLP096 T01170089
Observed
May-20 @ 13:55 UTC
Wind
  • 220° at 5 KTS
Visibility
10 SM
Flight Rules
VFR
Cloud Levels
  • Few at 1,700' AGL
  • Few at 2,200' AGL
  • Overcast at 12,000' AGL
Temperature
12°C / 54°F
Dewpoint
C / 48°F
Humidity
82%
Altimeter
29.81" Hg
Pressure
1009.52 hPa
Previous

2 hours ago

KAST 201255Z AUTO 20004KT 10SM FEW014 OVC030 12/09 A2980 RMK AO2 SLP092 T01170094
Observed
May-20 @ 12:55 UTC
Wind
  • 200° at 4 KTS
Visibility
10 SM
Flight Rules
MVFR
Cloud Levels
  • Few at 1,400' AGL
  • Overcast at 3,000' AGL
Temperature
12°C / 54°F
Dewpoint
C / 48°F
Humidity
82%
Altimeter
29.8" Hg
Pressure
1009.12 hPa